Time,TemperatureF,DewpointF,PressureIn,WindDirection,WindDirectionDegrees,WindSpeedMPH,WindSpeedGustMPH,Humidity,HourlyPrecipIn,Conditions,Clouds,dailyrainin,SoftwareType,DateUTC
2013-02-25 00:00:00,20.9,14.2,30.14,West,259,2.0,3.0,75,0.00,,,0.00,Wunderground v.1.15,2013-02-25 07:00:00,
2013-02-25 00:05:00,20.5,13.8,30.14,WSW,252,2.0,3.0,75,0.00,,,0.00,Wunderground v.1.15,2013-02-25 07:05:00,
2013-02-25 00:15:00,19.8,13.5,30.14,WSW,238,2.0,2.0,76,0.00,,,0.00,Wunderground v.1.15,2013-02-25 07:15:00,
2013-02-25 00:20:00,19.6,14.1,30.14,SW,236,1.0,1.0,79,0.00,,,0.00,Wunderground v.1.15,2013-02-25 07:20:00,
2013-02-25 00:30:00,19.4,13.7,30.15,WSW,245,0.0,1.0,78,0.00,,,0.00,Wunderground v.1.15,2013-02-25 07:30:00,
2013-02-25 00:35:00,18.7,12.7,30.15,West,274,0.0,2.0,77,0.00,,,0.00,Wunderground v.1.15,2013-02-25 07:35:00,
2013-02-25 00:40:00,18.3,12.3,30.16,WSW,247,2.0,2.0,77,0.00,,,0.00,Wunderground v.1.15,2013-02-25 07:40:00,
2013-02-25 00:45:00,18.0,12.0,30.16,WSW,242,2.0,2.0,77,0.00,,,0.00,Wunderground v.1.15,2013-02-25 07:45:00,
2013-02-25 00:50:00,17.8,12.4,30.16,WSW,241,1.0,1.0,79,0.00,,,0.00,Wunderground v.1.15,2013-02-25 07:50:00,
2013-02-25 00:55:00,17.5,12.1,30.16,NE,43,0.0,1.0,79,0.00,,,0.00,Wunderground v.1.15,2013-02-25 07:55:00,
2013-02-25 01:05:00,16.8,11.1,30.17,NNW,338,0.0,1.0,78,0.00,,,0.00,Wunderground v.1.15,2013-02-25 08:05:00,
2013-02-25 01:15:00,16.6,11.8,30.17,NNW,338,0.0,0.0,81,0.00,,,0.00,Wunderground v.1.15,2013-02-25 08:15:00,
2013-02-25 01:20:00,16.4,11.6,30.17,NNE,24,0.0,0.0,81,0.00,,,0.00,Wunderground v.1.15,2013-02-25 08:20:00,
2013-02-25 01:25:00,16.3,11.5,30.18,NE,53,0.0,0.0,81,0.00,,,0.00,Wunderground v.1.15,2013-02-25 08:25:00,
2013-02-25 01:30:00,16.2,11.7,30.18,NE,53,0.0,0.0,82,0.00,,,0.00,Wunderground v.1.15,2013-02-25 08:30:00,
2013-02-25 01:40:00,16.0,11.5,30.18,NE,54,0.0,1.0,82,0.00,,,0.00,Wunderground v.1.15,2013-02-25 08:40:00,
2013-02-25 01:45:00,15.9,11.4,30.18,NE,54,0.0,1.0,82,0.00,,,0.00,Wunderground v.1.15,2013-02-25 08:45:00,
2013-02-25 01:55:00,15.9,11.7,30.19,NE,53,0.0,0.0,83,0.00,,,0.00,Wunderground v.1.15,2013-02-25 08:55:00,
2013-02-25 02:00:00,16.1,11.8,30.19,NE,54,0.0,0.0,83,0.00,,,0.00,Wunderground v.1.15,2013-02-25 09:00:00,
2013-02-25 02:05:00,16.3,12.0,30.19,NNE,33,0.0,0.0,83,0.00,,,0.00,Wunderground v.1.15,2013-02-25 09:05:00,
2013-02-25 02:15:00,16.6,12.1,30.19,NNE,33,0.0,1.0,82,0.00,,,0.00,Wunderground v.1.15,2013-02-25 09:15:00,
2013-02-25 02:20:00,16.7,12.2,30.19,WSW,242,0.0,3.0,82,0.00,,,0.00,Wunderground v.1.15,2013-02-25 09:20:00,
2013-02-25 02:30:00,16.9,11.8,30.19,NNW,330,0.0,1.0,80,0.00,,,0.00,Wunderground v.1.15,2013-02-25 09:30:00,
2013-02-25 02:35:00,17.2,12.1,30.19,ENE,63,1.0,1.0,80,0.00,,,0.00,Wunderground v.1.15,2013-02-25 09:35:00,
2013-02-25 02:40:00,17.3,11.3,30.18,WSW,243,1.0,4.0,77,0.00,,,0.00,Wunderground v.1.15,2013-02-25 09:40:00,
2013-02-25 02:50:00,17.1,10.8,30.18,WNW,285,4.0,4.0,76,0.00,,,0.00,Wunderground v.1.15,2013-02-25 09:50:00,
2013-02-25 02:55:00,16.9,10.6,30.18,WNW,283,3.0,4.0,76,0.00,,,0.00,Wunderground v.1.15,2013-02-25 09:55:00,
2013-02-25 03:00:00,16.6,10.3,30.18,WNW,283,3.0,3.0,76,0.00,,,0.00,Wunderground v.1.15,2013-02-25 10:00:00,
2013-02-25 03:05:00,16.4,10.2,30.18,West,259,3.0,3.0,76,0.00,,,0.00,Wunderground v.1.15,2013-02-25 10:05:00,
2013-02-25 03:15:00,16.5,10.3,30.18,SW,215,2.0,3.0,76,0.00,,,0.00,Wunderground v.1.15,2013-02-25 10:15:00,
2013-02-25 03:20:00,16.6,9.8,30.18,WNW,290,2.0,2.0,74,0.00,,,0.00,Wunderground v.1.15,2013-02-25 10:20:00,
2013-02-25 03:25:00,16.3,9.5,30.18,WSW,246,2.0,2.0,74,0.00,,,0.00,Wunderground v.1.15,2013-02-25 10:25:00,
2013-02-25 03:30:00,16.0,9.5,30.18,SW,226,2.0,2.0,75,0.00,,,0.00,Wunderground v.1.15,2013-02-25 10:30:00,
2013-02-25 03:35:00,15.8,9.3,30.18,West,273,2.0,2.0,75,0.00,,,0.00,Wunderground v.1.15,2013-02-25 10:35:00,
2013-02-25 03:40:00,15.7,9.2,30.18,WSW,240,2.0,3.0,75,0.00,,,0.00,Wunderground v.1.15,2013-02-25 10:40:00,
2013-02-25 03:45:00,15.6,9.4,30.18,North,356,2.0,3.0,76,0.00,,,0.00,Wunderground v.1.15,2013-02-25 10:45:00,
2013-02-25 03:55:00,16.1,9.3,30.17,NNW,336,2.0,2.0,74,0.00,,,0.00,Wunderground v.1.15,2013-02-25 10:55:00,
2013-02-25 04:05:00,15.9,8.8,30.18,West,259,2.0,3.0,73,0.00,,,0.00,Wunderground v.1.15,2013-02-25 11:05:00,
2013-02-25 04:15:00,15.9,8.8,30.18,SW,224,1.0,2.0,73,0.00,,,0.00,Wunderground v.1.15,2013-02-25 11:15:00,
2013-02-25 04:20:00,15.4,7.7,30.18,NNW,334,1.0,1.0,71,0.00,,,0.00,Wunderground v.1.15,2013-02-25 11:20:00,
2013-02-25 04:30:00,12.9,6.5,30.19,ESE,106,1.0,1.0,75,0.00,,,0.00,Wunderground v.1.15,2013-02-25 11:30:00,
2013-02-25 04:35:00,12.1,6.0,30.19,ESE,106,0.0,1.0,76,0.00,,,0.00,Wunderground v.1.15,2013-02-25 11:35:00,
2013-02-25 04:40:00,11.4,5.6,30.19,ESE,110,0.0,0.0,77,0.00,,,0.00,Wunderground v.1.15,2013-02-25 11:40:00,
2013-02-25 04:45:00,11.0,5.8,30.19,ESE,107,0.0,0.0,79,0.00,,,0.00,Wunderground v.1.15,2013-02-25 11:45:00,
2013-02-25 04:55:00,10.5,5.8,30.19,ESE,107,0.0,0.0,81,0.00,,,0.00,Wunderground v.1.15,2013-02-25 11:55:00,
2013-02-25 05:05:00,10.0,5.3,30.19,ESE,109,0.0,0.0,81,0.00,,,0.00,Wunderground v.1.15,2013-02-25 12:05:00,
2013-02-25 05:15:00,9.7,5.6,30.19,North,354,0.0,2.0,83,0.00,,,0.00,Wunderground v.1.15,2013-02-25 12:15:00,
2013-02-25 05:20:00,10.1,6.0,30.19,WSW,250,1.0,1.0,83,0.00,,,0.00,Wunderground v.1.15,2013-02-25 12:20:00,
2013-02-25 05:30:00,11.5,5.7,30.18,East,98,1.0,1.0,77,0.00,,,0.00,Wunderground v.1.15,2013-02-25 12:30:00,
2013-02-25 05:35:00,10.3,5.1,30.17,East,85,0.0,2.0,79,0.00,,,0.00,Wunderground v.1.15,2013-02-25 12:35:00,
2013-02-25 05:40:00,11.7,8.1,30.17,NNW,329,1.0,1.0,85,0.00,,,0.00,Wunderground v.1.15,2013-02-25 12:40:00,
2013-02-25 05:45:00,13.9,9.4,30.17,SE,141,2.0,2.0,82,0.00,,,0.00,Wunderground v.1.15,2013-02-25 12:45:00,
2013-02-25 05:55:00,15.8,9.6,30.16,NNW,347,2.0,3.0,76,0.00,,,0.00,Wunderground v.1.15,2013-02-25 12:55:00,
2013-02-25 06:00:00,16.2,9.4,30.16,WSW,247,2.0,2.0,74,0.00,,,0.00,Wunderground v.1.15,2013-02-25 13:00:00,
2013-02-25 06:05:00,16.2,8.8,30.15,North,6,2.0,2.0,72,0.00,,,0.00,Wunderground v.1.15,2013-02-25 13:05:00,
2013-02-25 06:15:00,16.3,9.2,30.15,West,263,2.0,4.0,73,0.00,,,0.00,Wunderground v.1.15,2013-02-25 13:15:00,
2013-02-25 06:25:00,13.2,5.9,30.15,ESE,105,1.0,2.0,72,0.00,,,0.00,Wunderground v.1.15,2013-02-25 13:25:00,
2013-02-25 06:30:00,11.8,5.4,30.15,ENE,61,1.0,1.0,75,0.00,,,0.00,Wunderground v.1.15,2013-02-25 13:30:00,
2013-02-25 06:35:00,11.1,5.3,30.15,ENE,64,1.0,1.0,77,0.00,,,0.00,Wunderground v.1.15,2013-02-25 13:35:00,
2013-02-25 06:40:00,11.2,6.2,30.14,West,278,1.0,2.0,80,0.00,,,0.00,Wunderground v.1.15,2013-02-25 13:40:00,
2013-02-25 06:45:00,14.3,9.0,30.14,WNW,297,2.0,10.0,79,0.00,,,0.00,Wunderground v.1.15,2013-02-25 13:45:00,
2013-02-25 06:50:00,16.0,9.5,30.14,SSW,205,3.0,3.0,75,0.00,,,0.00,Wunderground v.1.15,2013-02-25 13:50:00,
2013-02-25 06:55:00,16.5,8.7,30.14,SW,229,2.0,3.0,71,0.00,,,0.00,Wunderground v.1.15,2013-02-25 13:55:00,
2013-02-25 07:05:00,14.4,6.7,30.14,WSW,245,2.0,3.0,71,0.00,,,0.00,Wunderground v.1.15,2013-02-25 14:05:00,
2013-02-25 07:20:00,16.6,8.8,30.14,ENE,63,1.0,2.0,71,0.00,,,0.00,Wunderground v.1.15,2013-02-25 14:20:00,
2013-02-25 07:25:00,16.5,8.7,30.15,North,5,1.0,2.0,71,0.00,,,0.00,Wunderground v.1.15,2013-02-25 14:25:00,
2013-02-25 07:30:00,17.4,8.6,30.15,SSW,194,1.0,1.0,68,0.00,,,0.00,Wunderground v.1.15,2013-02-25 14:30:00,
2013-02-25 07:35:00,17.1,8.3,30.15,NNE,12,1.0,2.0,68,0.00,,,0.00,Wunderground v.1.15,2013-02-25 14:35:00,
2013-02-25 07:40:00,17.7,9.2,30.15,ESE,119,1.0,1.0,69,0.00,,,0.00,Wunderground v.1.15,2013-02-25 14:40:00,
2013-02-25 07:45:00,18.2,8.7,30.16,ENE,60,1.0,1.0,66,0.00,,,0.00,Wunderground v.1.15,2013-02-25 14:45:00,
2013-02-25 07:50:00,18.6,9.5,30.15,ENE,64,0.0,0.0,67,0.00,,,0.00,Wunderground v.1.15,2013-02-25 14:50:00,
2013-02-25 08:00:00,19.6,10.1,30.15,ENE,64,0.0,0.0,66,0.00,,,0.00,Wunderground v.1.15,2013-02-25 15:00:00,
2013-02-25 08:05:00,21.4,10.0,30.15,WSW,240,0.0,0.0,61,0.00,,,0.00,Wunderground v.1.15,2013-02-25 15:05:00,
2013-02-25 08:15:00,20.8,10.5,30.16,ENE,72,1.0,1.0,64,0.00,,,0.00,Wunderground v.1.15,2013-02-25 15:15:00,
2013-02-25 08:20:00,22.5,12.8,30.16,ENE,75,0.0,0.0,66,0.00,,,0.00,Wunderground v.1.15,2013-02-25 15:20:00,
2013-02-25 08:25:00,23.5,11.6,30.16,ENE,74,0.0,0.0,60,0.00,,,0.00,Wunderground v.1.15,2013-02-25 15:25:00,
2013-02-25 08:30:00,24.1,12.6,30.16,East,94,1.0,1.0,61,0.00,,,0.00,Wunderground v.1.15,2013-02-25 15:30:00,
2013-02-25 08:40:00,26.0,12.8,30.16,ESE,104,1.0,1.0,57,0.00,,,0.00,Wunderground v.1.15,2013-02-25 15:40:00,
2013-02-25 08:45:00,26.0,12.4,30.16,ESE,123,1.0,1.0,56,0.00,,,0.00,Wunderground v.1.15,2013-02-25 15:45:00,
2013-02-25 08:50:00,26.8,14.0,30.16,SE,124,0.0,0.0,58,0.00,,,0.00,Wunderground v.1.15,2013-02-25 15:50:00,
2013-02-25 08:55:00,26.5,14.1,30.16,ENE,75,0.0,1.0,59,0.00,,,0.00,Wunderground v.1.15,2013-02-25 15:55:00,
2013-02-25 09:00:00,25.9,13.9,30.15,NE,56,1.0,1.0,60,0.00,,,0.00,Wunderground v.1.15,2013-02-25 16:00:00,
2013-02-25 09:05:00,26.0,14.4,30.15,ESE,107,1.0,1.0,61,0.00,,,0.00,Wunderground v.1.15,2013-02-25 16:05:00,
2013-02-25 09:15:00,27.0,15.3,30.15,ENE,75,1.0,1.0,61,0.00,,,0.00,Wunderground v.1.15,2013-02-25 16:15:00,
2013-02-25 09:25:00,29.0,15.2,30.14,East,101,1.0,1.0,56,0.00,,,0.00,Wunderground v.1.15,2013-02-25 16:25:00,
2013-02-25 09:35:00,28.8,15.9,30.14,ENE,72,1.0,1.0,58,0.00,,,0.00,Wunderground v.1.15,2013-02-25 16:35:00,
2013-02-25 09:40:00,28.8,15.9,30.14,ENE,68,1.0,2.0,58,0.00,,,0.00,Wunderground v.1.15,2013-02-25 16:40:00,
2013-02-25 09:45:00,28.4,16.3,30.14,East,89,1.0,2.0,60,0.00,,,0.00,Wunderground v.1.15,2013-02-25 16:45:00,
2013-02-25 09:50:00,29.4,17.2,30.14,ENE,69,1.0,2.0,60,0.00,,,0.00,Wunderground v.1.15,2013-02-25 16:50:00,
2013-02-25 09:55:00,29.3,16.7,30.14,ENE,62,2.0,2.0,59,0.00,,,0.00,Wunderground v.1.15,2013-02-25 16:55:00,
2013-02-25 10:00:00,29.5,16.9,30.13,SE,135,2.0,2.0,59,0.00,,,0.00,Wunderground v.1.15,2013-02-25 17:00:00,
2013-02-25 10:05:00,29.6,17.0,30.13,ENE,74,2.0,2.0,59,0.00,,,0.00,Wunderground v.1.15,2013-02-25 17:05:00,
2013-02-25 10:15:00,29.2,16.2,30.14,South,169,2.0,3.0,58,0.00,,,0.00,Wunderground v.1.15,2013-02-25 17:15:00,
2013-02-25 10:20:00,29.5,16.9,30.14,East,94,2.0,2.0,59,0.00,,,0.00,Wunderground v.1.15,2013-02-25 17:20:00,
2013-02-25 10:25:00,30.0,17.0,30.14,SE,142,2.0,3.0,58,0.00,,,0.00,Wunderground v.1.15,2013-02-25 17:25:00,
2013-02-25 10:30:00,29.9,17.3,30.14,SE,124,2.0,3.0,59,0.00,,,0.00,Wunderground v.1.15,2013-02-25 17:30:00,
2013-02-25 10:35:00,30.1,17.5,30.14,East,86,2.0,3.0,59,0.00,,,0.00,Wunderground v.1.15,2013-02-25 17:35:00,
2013-02-25 10:40:00,30.0,17.4,30.14,ESE,119,2.0,4.0,59,0.00,,,0.00,Wunderground v.1.15,2013-02-25 17:40:00,
2013-02-25 10:45:00,30.2,17.2,30.14,ESE,114,2.0,4.0,58,0.00,,,0.00,Wunderground v.1.15,2013-02-25 17:45:00,
2013-02-25 10:50:00,29.4,17.2,30.14,ESE,110,3.0,3.0,60,0.00,,,0.00,Wunderground v.1.15,2013-02-25 17:50:00,
2013-02-25 10:55:00,29.4,17.6,30.14,ESE,117,3.0,3.0,61,0.00,,,0.00,Wunderground v.1.15,2013-02-25 17:55:00,
2013-02-25 11:05:00,29.2,15.8,30.14,SE,129,2.0,3.0,57,0.00,,,0.00,Wunderground v.1.15,2013-02-25 18:05:00,
2013-02-25 11:15:00,29.9,16.9,30.14,ESE,110,2.0,2.0,58,0.00,,,0.00,Wunderground v.1.15,2013-02-25 18:15:00,
2013-02-25 11:20:00,30.0,17.0,30.14,SSE,151,2.0,2.0,58,0.00,,,0.00,Wunderground v.1.15,2013-02-25 18:20:00,
2013-02-25 11:25:00,30.4,17.4,30.14,SE,144,2.0,2.0,58,0.00,,,0.00,Wunderground v.1.15,2013-02-25 18:25:00,
2013-02-25 11:30:00,30.6,17.2,30.14,SSE,158,2.0,2.0,57,0.00,,,0.00,Wunderground v.1.15,2013-02-25 18:30:00,
2013-02-25 11:35:00,31.0,19.1,30.13,SE,143,2.0,3.0,61,0.00,,,0.00,Wunderground v.1.15,2013-02-25 18:35:00,
2013-02-25 11:40:00,30.7,17.3,30.13,SE,142,3.0,3.0,57,0.00,,,0.00,Wunderground v.1.15,2013-02-25 18:40:00,
2013-02-25 11:45:00,30.9,17.8,30.12,East,86,2.0,3.0,58,0.00,,,0.00,Wunderground v.1.15,2013-02-25 18:45:00,
2013-02-25 11:55:00,30.9,17.8,30.12,ESE,107,3.0,3.0,58,0.00,,,0.00,Wunderground v.1.15,2013-02-25 18:55:00,
2013-02-25 12:00:00,31.5,18.4,30.12,ESE,115,2.0,2.0,58,0.00,,,0.00,Wunderground v.1.15,2013-02-25 19:00:00,
2013-02-25 12:05:00,32.1,18.6,30.11,ESE,103,2.0,2.0,57,0.00,,,0.00,Wunderground v.1.15,2013-02-25 19:05:00,
2013-02-25 12:15:00,31.4,17.1,30.10,NE,53,3.0,3.0,55,0.00,,,0.00,Wunderground v.1.15,2013-02-25 19:15:00,
2013-02-25 12:20:00,31.6,17.3,30.10,SSE,150,3.0,3.0,55,0.00,,,0.00,Wunderground v.1.15,2013-02-25 19:20:00,
2013-02-25 12:25:00,32.2,16.1,30.09,ENE,57,2.0,3.0,51,0.00,,,0.00,Wunderground v.1.15,2013-02-25 19:25:00,
2013-02-25 12:30:00,32.1,16.9,30.09,East,79,3.0,3.0,53,0.00,,,0.00,Wunderground v.1.15,2013-02-25 19:30:00,
2013-02-25 12:40:00,32.3,18.3,30.08,SE,133,2.0,2.0,56,0.00,,,0.00,Wunderground v.1.15,2013-02-25 19:40:00,
2013-02-25 12:45:00,32.5,17.7,30.08,ENE,71,3.0,3.0,54,0.00,,,0.00,Wunderground v.1.15,2013-02-25 19:45:00,
2013-02-25 12:50:00,32.0,18.9,30.07,SE,127,3.0,3.0,58,0.00,,,0.00,Wunderground v.1.15,2013-02-25 19:50:00,
2013-02-25 12:55:00,32.1,17.7,30.07,ESE,121,3.0,3.0,55,0.00,,,0.00,Wunderground v.1.15,2013-02-25 19:55:00,
2013-02-25 13:05:00,32.1,17.3,30.06,ESE,104,3.0,3.0,54,0.00,,,0.00,Wunderground v.1.15,2013-02-25 20:05:00,
2013-02-25 13:15:00,32.2,17.8,30.06,ESE,118,3.0,4.0,55,0.00,,,0.00,Wunderground v.1.15,2013-02-25 20:15:00,
2013-02-25 13:20:00,32.4,17.6,30.06,SE,130,3.0,3.0,54,0.00,,,0.00,Wunderground v.1.15,2013-02-25 20:20:00,
2013-02-25 13:25:00,32.5,18.5,30.06,South,172,3.0,5.0,56,0.00,,,0.00,Wunderground v.1.15,2013-02-25 20:25:00,
2013-02-25 13:30:00,32.1,17.7,30.06,ENE,63,4.0,4.0,55,0.00,,,0.00,Wunderground v.1.15,2013-02-25 20:30:00,
2013-02-25 13:35:00,32.1,18.6,30.06,ESE,120,4.0,4.0,57,0.00,,,0.00,Wunderground v.1.15,2013-02-25 20:35:00,
2013-02-25 13:45:00,32.0,18.5,30.05,South,186,3.0,3.0,57,0.00,,,0.00,Wunderground v.1.15,2013-02-25 20:45:00,
2013-02-25 13:50:00,32.5,18.9,30.05,ESE,104,3.0,4.0,57,0.00,,,0.00,Wunderground v.1.15,2013-02-25 20:50:00,
2013-02-25 13:55:00,32.8,19.2,30.05,SE,144,3.0,4.0,57,0.00,,,0.00,Wunderground v.1.15,2013-02-25 20:55:00,
2013-02-25 14:00:00,33.1,19.1,30.05,NE,51,3.0,3.0,56,0.00,,,0.00,Wunderground v.1.15,2013-02-25 21:00:00,
2013-02-25 14:05:00,32.7,18.7,30.05,ENE,60,3.0,4.0,56,0.00,,,0.00,Wunderground v.1.15,2013-02-25 21:05:00,
2013-02-25 14:15:00,32.1,19.0,30.04,ENE,71,4.0,5.0,58,0.00,,,0.00,Wunderground v.1.15,2013-02-25 21:15:00,
2013-02-25 14:25:00,32.6,19.0,30.04,ESE,117,3.0,3.0,57,0.00,,,0.00,Wunderground v.1.15,2013-02-25 21:25:00,
2013-02-25 14:30:00,33.0,18.6,30.04,SE,136,2.0,2.0,55,0.00,,,0.00,Wunderground v.1.15,2013-02-25 21:30:00,
2013-02-25 14:35:00,33.2,19.6,30.04,East,79,2.0,2.0,57,0.00,,,0.00,Wunderground v.1.15,2013-02-25 21:35:00,
2013-02-25 14:40:00,33.6,19.6,30.04,SSW,201,2.0,2.0,56,0.00,,,0.00,Wunderground v.1.15,2013-02-25 21:40:00,
2013-02-25 14:45:00,33.7,18.8,30.04,SW,215,2.0,3.0,54,0.00,,,0.00,Wunderground v.1.15,2013-02-25 21:45:00,
2013-02-25 14:50:00,33.5,18.6,30.04,ESE,123,2.0,2.0,54,0.00,,,0.00,Wunderground v.1.15,2013-02-25 21:50:00,
2013-02-25 14:55:00,33.7,19.2,30.03,SE,143,2.0,3.0,55,0.00,,,0.00,Wunderground v.1.15,2013-02-25 21:55:00,
2013-02-25 15:00:00,33.5,18.2,30.02,SSE,147,2.0,2.0,53,0.00,,,0.00,Wunderground v.1.15,2013-02-25 22:00:00,
2013-02-25 15:05:00,33.5,19.5,30.02,ESE,108,2.0,2.0,56,0.00,,,0.00,Wunderground v.1.15,2013-02-25 22:05:00,
2013-02-25 15:15:00,33.9,19.8,30.02,SE,139,1.0,2.0,56,0.00,,,0.00,Wunderground v.1.15,2013-02-25 22:15:00,
2013-02-25 15:20:00,34.2,19.3,30.02,SSE,152,1.0,2.0,54,0.00,,,0.00,Wunderground v.1.15,2013-02-25 22:20:00,
2013-02-25 15:25:00,34.4,19.9,30.01,SE,125,2.0,3.0,55,0.00,,,0.00,Wunderground v.1.15,2013-02-25 22:25:00,
2013-02-25 15:30:00,34.5,19.5,30.01,SE,144,2.0,2.0,54,0.00,,,0.00,Wunderground v.1.15,2013-02-25 22:30:00,
2013-02-25 15:35:00,34.2,19.7,30.01,SE,142,2.0,2.0,55,0.00,,,0.00,Wunderground v.1.15,2013-02-25 22:35:00,
2013-02-25 15:40:00,34.1,19.6,30.01,ENE,76,2.0,2.0,55,0.00,,,0.00,Wunderground v.1.15,2013-02-25 22:40:00,
2013-02-25 15:45:00,34.4,20.3,30.01,ENE,75,2.0,2.0,56,0.00,,,0.00,Wunderground v.1.15,2013-02-25 22:45:00,
2013-02-25 15:55:00,34.7,20.6,30.01,SE,129,1.0,2.0,56,0.00,,,0.00,Wunderground v.1.15,2013-02-25 22:55:00,
2013-02-25 16:00:00,34.6,20.5,30.01,ESE,112,2.0,3.0,56,0.00,,,0.00,Wunderground v.1.15,2013-02-25 23:00:00,
2013-02-25 16:05:00,34.4,19.9,30.01,SSE,147,2.0,3.0,55,0.00,,,0.00,Wunderground v.1.15,2013-02-25 23:05:00,
2013-02-25 16:15:00,34.3,20.2,30.00,SSE,150,2.0,2.0,56,0.00,,,0.00,Wunderground v.1.15,2013-02-25 23:15:00,
2013-02-25 16:20:00,34.0,20.3,30.00,SE,146,1.0,1.0,57,0.00,,,0.00,Wunderground v.1.15,2013-02-25 23:20:00,
2013-02-25 16:30:00,34.3,20.2,30.00,ESE,118,1.0,1.0,56,0.00,,,0.00,Wunderground v.1.15,2013-02-25 23:30:00,
2013-02-25 16:35:00,34.6,20.5,30.00,ESE,122,1.0,2.0,56,0.00,,,0.00,Wunderground v.1.15,2013-02-25 23:35:00,
2013-02-25 16:40:00,34.0,20.3,30.00,ESE,105,1.0,1.0,57,0.00,,,0.00,Wunderground v.1.15,2013-02-25 23:40:00,
2013-02-25 16:45:00,33.4,19.8,30.00,ESE,121,1.0,2.0,57,0.00,,,0.00,Wunderground v.1.15,2013-02-25 23:45:00,
2013-02-25 16:50:00,33.1,19.9,29.99,NE,51,1.0,2.0,58,0.00,,,0.00,Wunderground v.1.15,2013-02-25 23:50:00,
2013-02-25 17:00:00,32.9,20.1,29.99,East,88,1.0,1.0,59,0.00,,,0.00,Wunderground v.1.15,2013-02-26 00:00:00,
2013-02-25 17:05:00,32.2,19.5,29.99,ENE,57,1.0,1.0,59,0.00,,,0.00,Wunderground v.1.15,2013-02-26 00:05:00,
2013-02-25 17:15:00,31.4,19.5,29.99,ENE,70,1.0,1.0,61,0.00,,,0.00,Wunderground v.1.15,2013-02-26 00:15:00,
2013-02-25 17:20:00,31.0,19.5,29.99,ENE,70,1.0,1.0,62,0.00,,,0.00,Wunderground v.1.15,2013-02-26 00:20:00,
2013-02-25 17:25:00,30.4,19.3,29.99,ENE,64,0.0,1.0,63,0.00,,,0.00,Wunderground v.1.15,2013-02-26 00:25:00,
2013-02-25 17:30:00,29.8,19.1,29.99,NE,56,0.0,1.0,64,0.00,,,0.00,Wunderground v.1.15,2013-02-26 00:30:00,
2013-02-25 17:40:00,28.9,19.0,29.99,ENE,62,1.0,1.0,66,0.00,,,0.00,Wunderground v.1.15,2013-02-26 00:40:00,
2013-02-25 17:45:00,28.5,18.9,29.98,ENE,61,1.0,1.0,67,0.00,,,0.00,Wunderground v.1.15,2013-02-26 00:45:00,
2013-02-25 17:50:00,28.3,18.7,29.98,ENE,62,1.0,1.0,67,0.00,,,0.00,Wunderground v.1.15,2013-02-26 00:50:00,
2013-02-25 17:55:00,28.0,18.8,29.98,ENE,63,1.0,1.0,68,0.00,,,0.00,Wunderground v.1.15,2013-02-26 00:55:00,
2013-02-25 18:05:00,27.3,18.1,29.98,ENE,63,0.0,0.0,68,0.00,,,0.00,Wunderground v.1.15,2013-02-26 01:05:00,
2013-02-25 18:15:00,26.7,17.9,29.98,ENE,63,0.0,0.0,69,0.00,,,0.00,Wunderground v.1.15,2013-02-26 01:15:00,
2013-02-25 18:25:00,26.6,17.8,29.99,ENE,62,0.0,1.0,69,0.00,,,0.00,Wunderground v.1.15,2013-02-26 01:25:00,
2013-02-25 18:30:00,26.5,18.0,29.99,ENE,62,0.0,0.0,70,0.00,,,0.00,Wunderground v.1.15,2013-02-26 01:30:00,
2013-02-25 18:40:00,25.8,17.4,29.99,ENE,63,0.0,0.0,70,0.00,,,0.00,Wunderground v.1.15,2013-02-26 01:40:00,
2013-02-25 18:45:00,25.6,18.1,29.99,ENE,62,0.0,0.0,73,0.00,,,0.00,Wunderground v.1.15,2013-02-26 01:45:00,
2013-02-25 18:50:00,25.3,17.9,29.99,ENE,63,0.0,0.0,73,0.00,,,0.00,Wunderground v.1.15,2013-02-26 01:50:00,
2013-02-25 18:55:00,24.9,18.1,29.99,ENE,62,0.0,0.0,75,0.00,,,0.00,Wunderground v.1.15,2013-02-26 01:55:00,
2013-02-25 19:00:00,24.8,18.3,29.99,ENE,62,0.0,0.0,76,0.00,,,0.00,Wunderground v.1.15,2013-02-26 02:00:00,
2013-02-25 19:10:00,24.4,18.2,29.99,ENE,62,0.0,0.0,77,0.00,,,0.00,Wunderground v.1.15,2013-02-26 02:10:00,
2013-02-25 19:15:00,24.3,18.1,29.98,ENE,63,0.0,0.0,77,0.00,,,0.00,Wunderground v.1.15,2013-02-26 02:15:00,
2013-02-25 19:20:00,24.0,17.8,29.99,ENE,63,0.0,0.0,77,0.00,,,0.00,Wunderground v.1.15,2013-02-26 02:20:00,
2013-02-25 19:25:00,23.6,17.7,29.98,ENE,63,0.0,0.0,78,0.00,,,0.00,Wunderground v.1.15,2013-02-26 02:25:00,
2013-02-25 19:30:00,23.2,17.7,29.98,ENE,63,0.0,0.0,79,0.00,,,0.00,Wunderground v.1.15,2013-02-26 02:30:00,
2013-02-25 19:35:00,22.8,17.3,29.98,ENE,62,0.0,0.0,79,0.00,,,0.00,Wunderground v.1.15,2013-02-26 02:35:00,
2013-02-25 19:45:00,22.2,17.0,29.98,ENE,63,0.0,0.0,80,0.00,,,0.00,Wunderground v.1.15,2013-02-26 02:45:00,
2013-02-25 19:50:00,21.8,16.3,29.98,ENE,63,0.0,1.0,79,0.00,,,0.00,Wunderground v.1.15,2013-02-26 02:50:00,
2013-02-25 19:55:00,21.3,15.8,29.98,ENE,63,0.0,1.0,79,0.00,,,0.00,Wunderground v.1.15,2013-02-26 02:55:00,
2013-02-25 20:00:00,21.0,16.1,29.98,ENE,62,0.0,0.0,81,0.00,,,0.00,Wunderground v.1.15,2013-02-26 03:00:00,
2013-02-25 20:05:00,20.9,16.5,29.98,ENE,61,0.0,0.0,83,0.00,,,0.00,Wunderground v.1.15,2013-02-26 03:05:00,
2013-02-25 20:15:00,20.8,16.5,29.98,ENE,61,0.0,1.0,83,0.00,,,0.00,Wunderground v.1.15,2013-02-26 03:15:00,
2013-02-25 20:25:00,21.0,16.9,29.98,ENE,62,0.0,0.0,84,0.00,,,0.00,Wunderground v.1.15,2013-02-26 03:25:00,
2013-02-25 20:30:00,20.9,16.8,29.98,ENE,62,0.0,0.0,84,0.00,,,0.00,Wunderground v.1.15,2013-02-26 03:30:00,
2013-02-25 20:35:00,20.8,16.7,29.98,WSW,257,0.0,0.0,84,0.00,,,0.00,Wunderground v.1.15,2013-02-26 03:35:00,
2013-02-25 20:40:00,20.7,16.6,29.98,NE,49,1.0,1.0,84,0.00,,,0.00,Wunderground v.1.15,2013-02-26 03:40:00,
2013-02-25 20:50:00,20.5,16.2,29.98,NE,43,0.0,0.0,83,0.00,,,0.00,Wunderground v.1.15,2013-02-26 03:50:00,
2013-02-25 20:55:00,20.7,16.6,29.98,NE,43,0.0,1.0,84,0.00,,,0.00,Wunderground v.1.15,2013-02-26 03:55:00,
2013-02-25 21:00:00,20.8,16.7,29.97,NE,43,0.0,0.0,84,0.00,,,0.00,Wunderground v.1.15,2013-02-26 04:00:00,
2013-02-25 21:05:00,20.9,16.5,29.97,South,177,0.0,0.0,83,0.00,,,0.00,Wunderground v.1.15,2013-02-26 04:05:00,
2013-02-25 21:15:00,22.1,16.6,29.97,East,98,1.0,1.0,79,0.00,,,0.00,Wunderground v.1.15,2013-02-26 04:15:00,
2013-02-25 21:20:00,22.3,16.8,29.98,NNW,340,1.0,1.0,79,0.00,,,0.00,Wunderground v.1.15,2013-02-26 04:20:00,
2013-02-25 21:30:00,22.5,16.7,29.97,ESE,122,0.0,1.0,78,0.00,,,0.00,Wunderground v.1.15,2013-02-26 04:30:00,
2013-02-25 21:35:00,22.3,16.2,29.97,ENE,58,1.0,2.0,77,0.00,,,0.00,Wunderground v.1.15,2013-02-26 04:35:00,
2013-02-25 21:40:00,21.7,15.9,29.97,ENE,58,1.0,1.0,78,0.00,,,0.00,Wunderground v.1.15,2013-02-26 04:40:00,
2013-02-25 21:45:00,21.1,15.6,29.97,ENE,58,0.0,1.0,79,0.00,,,0.00,Wunderground v.1.15,2013-02-26 04:45:00,
2013-02-25 21:50:00,20.7,15.5,29.97,ENE,58,0.0,1.0,80,0.00,,,0.00,Wunderground v.1.15,2013-02-26 04:50:00,
2013-02-25 21:55:00,20.6,15.7,29.97,ENE,64,0.0,1.0,81,0.00,,,0.00,Wunderground v.1.15,2013-02-26 04:55:00,
2013-02-25 22:00:00,20.4,15.2,29.97,ENE,64,0.0,0.0,80,0.00,,,0.00,Wunderground v.1.15,2013-02-26 05:00:00,
2013-02-25 22:05:00,20.0,15.1,29.96,ENE,64,0.0,1.0,81,0.00,,,0.00,Wunderground v.1.15,2013-02-26 05:05:00,
2013-02-25 22:10:00,19.8,15.2,29.96,ENE,64,0.0,0.0,82,0.00,,,0.00,Wunderground v.1.15,2013-02-26 05:10:00,
2013-02-25 22:15:00,19.8,15.5,29.96,West,267,0.0,0.0,83,0.00,,,0.00,Wunderground v.1.15,2013-02-26 05:15:00,
2013-02-25 22:20:00,20.2,15.9,29.96,NNW,345,0.0,0.0,83,0.00,,,0.00,Wunderground v.1.15,2013-02-26 05:20:00,
2013-02-25 22:25:00,20.1,15.5,29.95,North,356,0.0,1.0,82,0.00,,,0.00,Wunderground v.1.15,2013-02-26 05:25:00,
2013-02-25 22:30:00,19.9,15.3,29.95,East,96,0.0,0.0,82,0.00,,,0.00,Wunderground v.1.15,2013-02-26 05:30:00,
2013-02-25 22:35:00,19.7,15.1,29.96,ENE,76,0.0,0.0,82,0.00,,,0.00,Wunderground v.1.15,2013-02-26 05:35:00,
2013-02-25 22:40:00,19.6,15.3,29.96,ENE,68,0.0,0.0,83,0.00,,,0.00,Wunderground v.1.15,2013-02-26 05:40:00,
2013-02-25 22:45:00,19.5,15.2,29.95,ENE,68,0.0,0.0,83,0.00,,,0.00,Wunderground v.1.15,2013-02-26 05:45:00,
2013-02-25 22:50:00,19.5,15.2,29.95,ENE,68,0.0,0.0,83,0.00,,,0.00,Wunderground v.1.15,2013-02-26 05:50:00,
2013-02-25 23:00:00,19.4,15.1,29.95,ENE,68,0.0,0.0,83,0.00,,,0.00,Wunderground v.1.15,2013-02-26 06:00:00,
2013-02-25 23:05:00,19.3,15.0,29.95,ENE,68,0.0,0.0,83,0.00,,,0.00,Wunderground v.1.15,2013-02-26 06:05:00,
2013-02-25 23:15:00,18.9,15.1,29.95,ENE,68,0.0,0.0,85,0.00,,,0.00,Wunderground v.1.15,2013-02-26 06:15:00,
2013-02-25 23:20:00,18.9,14.9,29.95,ENE,68,0.0,0.0,84,0.00,,,0.00,Wunderground v.1.15,2013-02-26 06:20:00,
2013-02-25 23:25:00,18.9,14.9,29.94,ENE,72,0.0,0.0,84,0.00,,,0.00,Wunderground v.1.15,2013-02-26 06:25:00,
2013-02-25 23:30:00,18.7,14.7,29.94,ENE,72,0.0,0.0,84,0.00,,,0.00,Wunderground v.1.15,2013-02-26 06:30:00,
2013-02-25 23:35:00,18.6,14.6,29.94,ENE,72,0.0,0.0,84,0.00,,,0.00,Wunderground v.1.15,2013-02-26 06:35:00,
2013-02-25 23:45:00,18.6,14.6,29.94,NE,50,0.0,0.0,84,0.00,,,0.00,Wunderground v.1.15,2013-02-26 06:45:00,
2013-02-25 23:50:00,18.6,14.6,29.94,NE,50,1.0,1.0,84,0.00,,,0.00,Wunderground v.1.15,2013-02-26 06:50:00,
2013-02-25 23:55:00,18.6,14.6,29.94,NE,50,0.0,1.0,84,0.00,,,0.00,Wunderground v.1.15,2013-02-26 06:55:00,